createdAt,value
2018-08-17T00:00:29.696Z,11.37
2018-08-17T00:02:58.480Z,10.03
2018-08-17T00:05:27.106Z,10.93
2018-08-17T00:07:55.640Z,10.97
2018-08-17T00:10:24.294Z,10.10
2018-08-17T00:12:52.864Z,10.13
2018-08-17T00:15:21.477Z,10.00
2018-08-17T00:17:49.974Z,10.60
2018-08-17T00:20:18.518Z,9.63
2018-08-17T00:22:47.152Z,9.97
2018-08-17T00:25:15.676Z,10.10
2018-08-17T00:27:44.293Z,9.50
2018-08-17T00:30:12.947Z,10.23
2018-08-17T00:32:41.505Z,9.43
2018-08-17T00:35:10.145Z,9.43
2018-08-17T00:37:38.670Z,9.67
2018-08-17T00:40:07.507Z,9.80
2018-08-17T00:42:36.022Z,10.63
2018-08-17T00:45:05.240Z,10.87
2018-08-17T00:47:33.749Z,10.13
2018-08-17T00:50:02.601Z,11.30
2018-08-17T00:52:31.092Z,10.77
2018-08-17T00:54:59.653Z,11.57
2018-08-17T00:57:28.172Z,12.00
2018-08-17T00:59:56.724Z,11.87
2018-08-17T01:02:25.327Z,11.00
2018-08-17T01:04:53.833Z,11.07
2018-08-17T01:07:22.351Z,11.30
2018-08-17T01:09:50.903Z,10.80
2018-08-17T01:12:19.613Z,11.60
2018-08-17T01:14:48.145Z,10.17
2018-08-17T01:17:16.654Z,11.23
2018-08-17T01:19:45.152Z,11.00
2018-08-17T01:22:13.885Z,11.20
2018-08-17T01:24:42.343Z,10.30
2018-08-17T01:27:10.882Z,10.27
2018-08-17T01:29:39.607Z,10.97
2018-08-17T01:32:08.204Z,10.57
2018-08-17T01:34:36.695Z,11.47
2018-08-17T01:37:05.497Z,10.97
2018-08-17T01:39:34.023Z,11.87
2018-08-17T01:42:02.617Z,11.83
2018-08-17T01:44:31.100Z,11.70
2018-08-17T01:46:59.656Z,12.23
2018-08-17T01:49:28.210Z,12.13
2018-08-17T01:51:56.793Z,14.83
2018-08-17T01:54:25.299Z,15.07
2018-08-17T01:57:11.886Z,0.60
2018-08-17T01:59:40.871Z,0.50
2018-08-17T02:02:09.485Z,1.10
2018-08-17T02:04:38.080Z,0.60
2018-08-17T02:07:06.600Z,0.43
2018-08-17T02:09:35.188Z,0.50
2018-08-17T02:12:03.714Z,0.40
2018-08-17T02:14:32.239Z,0.40
2018-08-17T02:17:00.879Z,0.57
2018-08-17T02:19:29.399Z,0.37
2018-08-17T02:21:58.027Z,0.90
2018-08-17T02:24:26.622Z,0.50
2018-08-17T02:26:55.110Z,0.40
2018-08-17T02:29:23.907Z,0.70
2018-08-17T02:31:52.595Z,0.47
2018-08-17T02:34:21.120Z,1.17
2018-08-17T02:36:49.634Z,1.90
2018-08-17T02:39:18.172Z,0.50
2018-08-17T02:41:46.810Z,0.60
2018-08-17T02:44:15.320Z,0.43
2018-08-17T02:46:43.811Z,0.50
2018-08-17T02:49:12.366Z,0.77
2018-08-17T02:51:40.850Z,0.97
2018-08-17T02:54:09.436Z,0.97
2018-08-17T02:56:38.064Z,0.50
2018-08-17T02:59:06.709Z,0.50
2018-08-17T03:01:35.615Z,2.00
2018-08-17T03:04:04.421Z,0.57
2018-08-17T03:06:32.917Z,1.70
2018-08-17T03:09:01.733Z,0.60
2018-08-17T03:11:30.245Z,0.70
2018-08-17T03:13:58.875Z,1.67
2018-08-17T03:16:27.334Z,0.87
2018-08-17T03:18:55.922Z,0.60
2018-08-17T03:21:25.042Z,0.50
2018-08-17T03:23:53.557Z,0.60
2018-08-17T03:26:22.978Z,0.70
2018-08-17T03:28:51.489Z,1.43
2018-08-17T03:31:19.984Z,1.23
2018-08-17T03:33:48.632Z,1.63
2018-08-17T03:36:17.139Z,0.80
2018-08-17T03:38:45.678Z,0.50
2018-08-17T03:41:14.163Z,3.10
2018-08-17T03:43:42.667Z,0.50
2018-08-17T03:46:11.371Z,0.40
2018-08-17T03:48:39.914Z,0.43
2018-08-17T03:51:08.463Z,1.50
2018-08-17T03:53:37.063Z,1.00
2018-08-17T03:56:05.547Z,0.60
2018-08-17T03:58:34.038Z,0.57
2018-08-17T04:01:03.114Z,0.70
2018-08-17T04:03:31.593Z,0.60
2018-08-17T04:06:00.111Z,0.70
2018-08-17T04:08:28.783Z,0.60
2018-08-17T04:10:57.289Z,0.80
2018-08-17T04:13:25.793Z,0.40
2018-08-17T04:15:54.303Z,0.63
2018-08-17T04:18:23.118Z,0.50
2018-08-17T04:20:51.688Z,0.77
2018-08-17T04:23:20.144Z,0.80
2018-08-17T04:25:48.668Z,0.60
2018-08-17T04:28:17.197Z,0.60
2018-08-17T04:30:45.748Z,0.50
2018-08-17T04:33:14.320Z,0.60
2018-08-17T04:35:42.980Z,1.03
2018-08-17T04:38:11.717Z,2.10
2018-08-17T04:40:40.274Z,0.60
2018-08-17T04:43:09.330Z,0.60
2018-08-17T04:45:38.045Z,1.10
2018-08-17T04:48:06.553Z,0.60
2018-08-17T04:50:35.024Z,1.37
2018-08-17T04:53:03.529Z,0.50
2018-08-17T04:55:31.988Z,0.40
2018-08-17T04:58:01.529Z,0.50
2018-08-17T05:00:30.058Z,0.47
2018-08-17T05:02:58.536Z,0.80
2018-08-17T05:05:27.053Z,2.30
2018-08-17T05:07:55.557Z,0.50
2018-08-17T05:10:24.086Z,0.70
2018-08-17T05:12:52.660Z,0.60
2018-08-17T05:15:21.282Z,0.60
2018-08-17T05:17:49.898Z,0.70
2018-08-17T05:20:18.424Z,0.63
2018-08-17T05:22:46.935Z,0.40
2018-08-17T05:25:15.885Z,0.40
2018-08-17T05:27:44.455Z,0.70
2018-08-17T05:30:13.159Z,0.50
2018-08-17T05:32:41.662Z,0.50
2018-08-17T05:35:10.202Z,0.40
2018-08-17T05:37:38.715Z,0.50
2018-08-17T05:40:08.141Z,0.50
2018-08-17T05:42:37.230Z,1.40
2018-08-17T05:45:06.767Z,0.50
2018-08-17T05:47:35.439Z,0.50
2018-08-17T05:50:04.362Z,0.43
2018-08-17T05:52:32.901Z,0.70
2018-08-17T05:55:01.632Z,0.50
2018-08-17T05:57:31.483Z,1.17
2018-08-17T05:59:59.970Z,0.60
2018-08-17T06:02:28.530Z,0.50
2018-08-17T06:04:57.064Z,0.57
2018-08-17T06:07:25.542Z,0.40
2018-08-17T06:09:54.091Z,0.40
2018-08-17T06:12:22.819Z,0.40
2018-08-17T06:14:51.322Z,0.50
2018-08-17T06:17:19.860Z,0.50
2018-08-17T06:19:48.318Z,0.90
2018-08-17T06:22:19.893Z,0.60
2018-08-17T06:24:48.949Z,0.50
2018-08-17T06:27:17.476Z,0.40
2018-08-17T06:29:46.097Z,1.40
2018-08-17T06:32:14.610Z,13.97
2018-08-17T06:34:43.119Z,14.50
2018-08-17T06:37:11.704Z,14.77
2018-08-17T06:39:40.233Z,15.73
2018-08-17T06:42:08.798Z,17.00
2018-08-17T06:44:37.334Z,16.83
2018-08-17T06:47:05.994Z,16.40
2018-08-17T06:49:34.461Z,15.40
2018-08-17T06:52:03.260Z,15.30
2018-08-17T06:54:31.911Z,16.37
2018-08-17T06:57:00.464Z,16.20
2018-08-17T06:59:29.120Z,16.17
2018-08-17T07:01:57.787Z,17.00
2018-08-17T07:04:26.289Z,17.27
2018-08-17T07:06:54.848Z,17.87
2018-08-17T07:09:23.536Z,18.47
2018-08-17T07:11:52.183Z,18.40
2018-08-17T07:14:20.760Z,16.37
2018-08-17T07:16:49.407Z,16.67
2018-08-17T07:19:17.997Z,16.50
2018-08-17T07:21:46.632Z,15.90
2018-08-17T07:24:15.236Z,16.80
2018-08-17T07:26:43.903Z,17.73
2018-08-17T07:29:12.562Z,19.63
2018-08-17T07:31:41.053Z,17.53
2018-08-17T07:34:09.632Z,17.87
2018-08-17T07:36:38.276Z,16.60
2018-08-17T07:39:07.889Z,16.47
2018-08-17T07:41:37.305Z,16.33
2018-08-17T07:44:06.265Z,16.20
2018-08-17T07:46:34.925Z,14.77
2018-08-17T07:49:03.704Z,13.60
2018-08-17T07:51:32.246Z,14.17
2018-08-17T07:54:00.745Z,13.87
2018-08-17T07:56:29.259Z,15.20
2018-08-17T07:58:58.262Z,14.27
2018-08-17T08:01:26.738Z,12.97
2018-08-17T08:03:55.297Z,14.10
2018-08-17T08:06:23.840Z,12.57
2018-08-17T08:08:52.414Z,13.03
2018-08-17T08:11:20.954Z,12.53
2018-08-17T08:13:49.457Z,12.20
2018-08-17T08:16:18.040Z,12.07
2018-08-17T08:18:46.621Z,10.53
2018-08-17T08:21:15.178Z,10.70
2018-08-17T08:23:43.776Z,10.33
2018-08-17T08:26:12.319Z,9.87
2018-08-17T08:28:40.814Z,10.60
2018-08-17T08:31:09.525Z,10.50
2018-08-17T08:33:38.022Z,11.50
2018-08-17T08:36:06.601Z,11.77
2018-08-17T08:38:35.135Z,11.13
2018-08-17T08:41:03.661Z,12.70
2018-08-17T08:43:32.123Z,12.23
2018-08-17T08:46:00.691Z,12.17
2018-08-17T08:48:29.219Z,12.63
2018-08-17T08:50:57.798Z,13.90
2018-08-17T08:53:26.406Z,13.97
2018-08-17T08:55:55.060Z,13.30
2018-08-17T08:58:23.589Z,13.60
2018-08-17T09:00:52.124Z,13.03
2018-08-17T09:03:20.669Z,12.87
2018-08-17T09:05:49.227Z,12.40
2018-08-17T09:08:17.791Z,12.87
2018-08-17T09:10:46.372Z,12.80
2018-08-17T09:13:15.046Z,12.40
2018-08-17T09:15:43.594Z,11.70
2018-08-17T09:18:12.135Z,11.30
2018-08-17T09:20:40.787Z,13.00
2018-08-17T09:23:09.626Z,11.93
2018-08-17T09:25:38.227Z,13.10
2018-08-17T09:28:06.912Z,12.97
2018-08-17T09:30:35.444Z,14.00
2018-08-17T09:33:03.991Z,14.07
2018-08-17T09:35:32.549Z,14.57
2018-08-17T09:38:01.118Z,14.03
2018-08-17T09:40:29.656Z,14.70
2018-08-17T09:42:58.248Z,14.83
2018-08-17T09:45:26.797Z,14.67
2018-08-17T09:47:55.264Z,14.93
2018-08-17T09:50:23.879Z,14.43
2018-08-17T09:52:52.370Z,15.47
2018-08-17T09:55:20.847Z,15.17
2018-08-17T09:57:49.405Z,14.40
2018-08-17T10:00:17.952Z,13.50
2018-08-17T10:02:51.486Z,14.67
2018-08-17T10:05:25.275Z,14.03
2018-08-17T10:07:59.201Z,14.67
2018-08-17T10:10:29.324Z,14.17
2018-08-17T10:12:57.990Z,12.33
2018-08-17T10:15:26.476Z,14.67
2018-08-17T10:17:55.043Z,14.00
2018-08-17T10:20:24.125Z,14.30
2018-08-17T10:22:52.628Z,13.83
2018-08-17T10:25:23.223Z,13.30
2018-08-17T10:27:53.098Z,11.90
2018-08-17T10:30:22.316Z,13.13
2018-08-17T10:32:54.729Z,13.20
2018-08-17T10:35:31.648Z,13.20
2018-08-17T10:38:03.244Z,13.90
2018-08-17T10:40:31.913Z,10.60
2018-08-17T10:43:01.905Z,11.13
2018-08-17T10:45:30.725Z,10.73
2018-08-17T10:47:59.428Z,11.03
2018-08-17T10:50:30.037Z,10.67
2018-08-17T10:52:59.845Z,10.53
2018-08-17T10:55:38.210Z,10.77
2018-08-17T10:58:07.432Z,8.20
2018-08-17T11:00:36.336Z,7.70
2018-08-17T11:03:04.931Z,7.47
2018-08-17T11:05:33.409Z,6.80
2018-08-17T11:08:01.953Z,7.07
2018-08-17T11:10:30.486Z,6.70
2018-08-17T11:12:58.949Z,6.77
2018-08-17T11:15:27.615Z,5.40
2018-08-17T11:17:56.169Z,5.20
2018-08-17T11:20:24.834Z,5.47
2018-08-17T11:22:53.404Z,4.97
2018-08-17T11:25:21.868Z,4.90
2018-08-17T11:27:51.234Z,5.33
2018-08-17T11:30:19.788Z,5.60
2018-08-17T11:32:48.528Z,5.90
2018-08-17T11:35:17.069Z,5.80
2018-08-17T11:37:45.565Z,6.43
2018-08-17T11:40:15.770Z,6.47
2018-08-17T11:42:48.196Z,6.00
2018-08-17T11:45:19.738Z,5.47
2018-08-17T11:47:48.662Z,5.17
2018-08-17T11:50:18.798Z,5.87
2018-08-17T11:52:51.321Z,5.00
2018-08-17T11:55:20.448Z,5.63
2018-08-17T11:57:49.116Z,5.37
2018-08-17T12:00:17.689Z,5.57
2018-08-17T12:02:46.367Z,5.90
2018-08-17T12:05:14.922Z,5.83
2018-08-17T12:07:44.383Z,5.47
2018-08-17T12:10:13.371Z,5.17
2018-08-17T12:12:42.654Z,4.47
2018-08-17T12:15:11.920Z,5.23
2018-08-17T12:17:40.438Z,4.50
2018-08-17T12:20:08.937Z,4.80
2018-08-17T12:22:37.440Z,4.47
2018-08-17T12:25:07.065Z,5.53
2018-08-17T12:27:35.706Z,4.97
2018-08-17T12:30:04.985Z,4.97
2018-08-17T12:32:33.611Z,4.03
2018-08-17T12:35:02.124Z,4.33
2018-08-17T12:37:30.901Z,4.40
2018-08-17T12:39:59.461Z,4.37
2018-08-17T12:42:28.174Z,4.40
2018-08-17T12:45:02.814Z,4.00
2018-08-17T12:47:32.005Z,3.70
2018-08-17T12:50:00.526Z,3.17
2018-08-17T12:52:29.119Z,3.20
2018-08-17T12:54:57.568Z,2.70
2018-08-17T12:57:30.293Z,2.87
2018-08-17T12:59:58.842Z,3.13
2018-08-17T13:02:27.781Z,3.03
2018-08-17T13:04:56.311Z,2.80
2018-08-17T13:07:24.851Z,2.80
2018-08-17T13:09:54.358Z,2.57
2018-08-17T13:12:22.951Z,2.83
2018-08-17T13:14:52.600Z,3.00
2018-08-17T13:17:21.244Z,3.00
2018-08-17T13:19:49.803Z,2.60
2018-08-17T13:22:18.648Z,2.63
2018-08-17T13:24:47.197Z,2.30
2018-08-17T13:27:15.969Z,2.63
2018-08-17T13:29:44.569Z,2.50
2018-08-17T13:32:13.118Z,2.70
2018-08-17T13:34:41.621Z,2.40
2018-08-17T13:37:10.168Z,2.47
2018-08-17T13:39:38.736Z,2.50
2018-08-17T13:42:07.468Z,2.73
2018-08-17T13:44:35.995Z,2.60
2018-08-17T13:47:04.624Z,2.83
2018-08-17T13:49:33.097Z,2.50
2018-08-17T13:52:01.672Z,2.63
2018-08-17T13:54:30.218Z,2.40
2018-08-17T13:56:58.699Z,2.50
2018-08-17T13:59:27.252Z,2.70
2018-08-17T14:01:58.198Z,2.47
2018-08-17T14:04:26.782Z,2.43
2018-08-17T14:06:55.352Z,2.20
2018-08-17T14:09:24.149Z,2.40
2018-08-17T14:11:52.821Z,2.17
2018-08-17T14:14:21.485Z,2.57
2018-08-17T14:16:50.039Z,2.63
2018-08-17T14:19:18.628Z,2.70
2018-08-17T14:21:47.141Z,2.67
2018-08-17T14:24:15.688Z,2.03
2018-08-17T14:26:44.172Z,2.30
2018-08-17T14:29:12.688Z,2.40
2018-08-17T14:31:41.164Z,2.80
2018-08-17T14:34:09.769Z,2.90
2018-08-17T14:36:38.347Z,2.60
2018-08-17T14:39:07.506Z,2.47
2018-08-17T14:41:46.032Z,2.80
2018-08-17T14:44:14.621Z,2.53
2018-08-17T14:46:43.163Z,2.60
2018-08-17T14:49:11.747Z,2.60
2018-08-17T14:51:40.283Z,2.67
2018-08-17T14:54:08.969Z,2.80
2018-08-17T14:56:37.525Z,2.97
2018-08-17T14:59:06.353Z,2.80
2018-08-17T15:01:35.049Z,2.53
2018-08-17T15:04:03.585Z,2.43
2018-08-17T15:06:32.304Z,2.80
2018-08-17T15:09:00.777Z,2.87
2018-08-17T15:11:29.377Z,2.67
2018-08-17T15:13:57.978Z,3.00
2018-08-17T15:16:26.552Z,2.70
2018-08-17T15:18:55.068Z,2.77
2018-08-17T15:21:23.726Z,2.90
2018-08-17T15:23:52.260Z,2.90
2018-08-17T15:26:20.776Z,2.60
2018-08-17T15:28:49.327Z,2.40
2018-08-17T15:31:17.906Z,2.33
2018-08-17T15:33:46.455Z,1.93
2018-08-17T15:36:15.135Z,2.43
2018-08-17T15:38:44.087Z,2.50
2018-08-17T15:41:12.622Z,2.30
2018-08-17T15:43:41.172Z,2.30
2018-08-17T15:46:09.778Z,1.87
2018-08-17T15:48:44.488Z,1.90
2018-08-17T15:51:15.363Z,2.23
2018-08-17T15:53:43.997Z,1.80
2018-08-17T15:56:13.141Z,2.13
2018-08-17T15:58:41.708Z,2.17
2018-08-17T16:01:10.550Z,2.10
2018-08-17T16:03:39.309Z,1.87
2018-08-17T16:06:08.532Z,1.87
2018-08-17T16:08:37.100Z,2.13
2018-08-17T16:11:05.704Z,1.83
2018-08-17T16:13:34.237Z,1.70
2018-08-17T16:16:02.789Z,1.67
2018-08-17T16:18:31.659Z,1.73
2018-08-17T16:21:00.233Z,1.30
2018-08-17T16:23:28.780Z,1.50
2018-08-17T16:25:57.486Z,1.57
2018-08-17T16:28:26.281Z,1.60
2018-08-17T16:30:54.820Z,1.30
2018-08-17T16:33:23.365Z,1.53
2018-08-17T16:35:51.916Z,1.80
2018-08-17T16:38:20.467Z,1.50
2018-08-17T16:40:51.711Z,1.30
2018-08-17T16:43:29.420Z,1.23
2018-08-17T16:45:57.982Z,1.90
2018-08-17T16:48:26.485Z,2.40
2018-08-17T16:50:55.036Z,1.80
2018-08-17T16:53:23.519Z,3.93
2018-08-17T16:55:52.048Z,2.17
2018-08-17T16:58:20.606Z,1.80
2018-08-17T17:00:49.219Z,1.50
2018-08-17T17:03:17.853Z,1.70
2018-08-17T17:05:46.474Z,1.50
2018-08-17T17:08:15.037Z,1.70
2018-08-17T17:10:43.808Z,1.67
2018-08-17T17:13:12.325Z,1.90
2018-08-17T17:15:40.798Z,1.67
2018-08-17T17:18:09.951Z,1.83
2018-08-17T17:20:39.403Z,1.67
2018-08-17T17:23:09.304Z,1.83
2018-08-17T17:25:37.913Z,1.87
2018-08-17T17:28:06.819Z,1.77
2018-08-17T17:30:44.057Z,1.90
2018-08-17T17:33:12.734Z,1.83
2018-08-17T17:35:42.411Z,2.30
2018-08-17T17:38:11.530Z,1.87
2018-08-17T17:40:40.905Z,2.00
2018-08-17T17:43:09.732Z,2.10
2018-08-17T17:45:38.882Z,2.10
2018-08-17T17:48:07.581Z,1.77
2018-08-17T17:50:36.086Z,1.90
2018-08-17T17:53:04.978Z,1.93
2018-08-17T17:55:44.269Z,2.40
2018-08-17T17:58:13.507Z,1.87
2018-08-17T18:00:46.205Z,1.93
2018-08-17T18:03:14.852Z,2.00
2018-08-17T18:05:43.376Z,2.00
2018-08-17T18:08:17.350Z,2.27
2018-08-17T18:10:46.094Z,2.30
2018-08-17T18:13:14.671Z,2.10
2018-08-17T18:15:43.226Z,2.10
2018-08-17T18:18:11.764Z,1.90
2018-08-17T18:20:40.886Z,2.37
2018-08-17T18:23:09.413Z,1.90
2018-08-17T18:25:38.069Z,2.10
2018-08-17T18:28:06.754Z,2.10
2018-08-17T18:30:35.419Z,2.20
2018-08-17T18:33:04.032Z,2.40
2018-08-17T18:35:32.517Z,2.10
2018-08-17T18:38:01.155Z,2.70
2018-08-17T18:40:29.789Z,3.27
2018-08-17T18:42:58.377Z,2.33
2018-08-17T18:45:27.068Z,2.13
2018-08-17T18:47:55.643Z,2.20
2018-08-17T18:50:24.352Z,2.27
2018-08-17T18:52:52.995Z,2.17
2018-08-17T18:55:21.501Z,2.53
2018-08-17T18:57:50.035Z,2.30
2018-08-17T19:00:18.578Z,2.50
2018-08-17T19:02:47.161Z,2.70
2018-08-17T19:05:15.703Z,2.33
2018-08-17T19:07:44.335Z,2.60
2018-08-17T19:10:13.057Z,2.30
2018-08-17T19:12:41.554Z,2.37
2018-08-17T19:15:11.537Z,2.60
2018-08-17T19:17:40.455Z,2.67
2018-08-17T19:20:11.480Z,2.93
2018-08-17T19:22:43.659Z,3.03
2018-08-17T19:25:13.764Z,3.10
2018-08-17T19:27:42.907Z,3.10
2018-08-17T19:30:25.534Z,2.60
2018-08-17T19:32:55.429Z,2.80
2018-08-17T19:35:24.188Z,3.77
2018-08-17T19:37:53.507Z,4.10
2018-08-17T19:40:23.014Z,4.10
2018-08-17T19:42:51.829Z,4.50
2018-08-17T19:45:21.094Z,4.13
2018-08-17T19:47:50.048Z,3.60
2018-08-17T19:50:18.556Z,3.40
2018-08-17T19:52:47.230Z,3.30
2018-08-17T19:55:15.815Z,3.10
2018-08-17T19:57:44.313Z,2.70
2018-08-17T20:00:13.683Z,3.30
2018-08-17T20:02:42.568Z,2.90
2018-08-17T20:05:11.485Z,3.30
2018-08-17T20:07:40.309Z,2.77
2018-08-17T20:10:10.249Z,2.87
2018-08-17T20:12:38.929Z,3.00
2018-08-17T20:15:07.977Z,2.83
2018-08-17T20:17:36.884Z,3.03
2018-08-17T20:20:08.228Z,2.83
2018-08-17T20:22:36.770Z,3.00
2018-08-17T20:25:12.040Z,2.83
2018-08-17T20:27:40.858Z,2.80
2018-08-17T20:30:14.739Z,3.37
2018-08-17T20:32:44.092Z,3.00
2018-08-17T20:35:12.801Z,2.93
2018-08-17T20:37:45.068Z,2.87
2018-08-17T20:40:13.740Z,2.47
2018-08-17T20:42:42.481Z,2.60
2018-08-17T20:45:11.398Z,3.20
2018-08-17T20:47:40.761Z,2.83
2018-08-17T20:50:13.195Z,2.83
2018-08-17T20:52:48.024Z,3.00
2018-08-17T20:55:16.538Z,3.00
2018-08-17T20:57:46.832Z,3.10
2018-08-17T21:00:15.353Z,3.27
2018-08-17T21:02:43.988Z,3.67
2018-08-17T21:05:12.525Z,3.17
2018-08-17T21:07:41.041Z,3.40
2018-08-17T21:10:10.876Z,3.90
2018-08-17T21:12:39.394Z,3.50
2018-08-17T21:15:08.046Z,3.13
2018-08-17T21:17:36.553Z,3.30
2018-08-17T21:20:05.735Z,3.27
2018-08-17T21:22:34.271Z,3.43
2018-08-17T21:25:02.841Z,3.60
2018-08-17T21:27:32.128Z,3.57
2018-08-17T21:30:00.859Z,3.47
2018-08-17T21:32:29.387Z,3.43
2018-08-17T21:34:58.041Z,3.77
2018-08-17T21:37:27.424Z,3.70
2018-08-17T21:39:56.078Z,4.63
2018-08-17T21:42:24.702Z,4.00
2018-08-17T21:44:53.194Z,3.80
2018-08-17T21:47:21.768Z,3.90
2018-08-17T21:49:50.488Z,4.00
2018-08-17T21:52:24.402Z,3.87
2018-08-17T21:54:52.905Z,3.83
2018-08-17T21:57:21.465Z,3.77
2018-08-17T21:59:50.780Z,3.97
2018-08-17T22:02:20.458Z,4.03
2018-08-17T22:04:49.064Z,3.90
2018-08-17T22:07:22.703Z,3.83
2018-08-17T22:09:52.024Z,4.23
2018-08-17T22:12:20.883Z,4.30
2018-08-17T22:14:50.184Z,4.70
2018-08-17T22:17:31.403Z,4.70
2018-08-17T22:20:00.161Z,4.67
2018-08-17T22:22:28.696Z,4.70
2018-08-17T22:24:58.450Z,4.63
2018-08-17T22:27:28.059Z,4.67
2018-08-17T22:29:58.059Z,4.37
2018-08-17T22:32:26.725Z,4.70
2018-08-17T22:34:55.731Z,4.57
2018-08-17T22:37:24.277Z,5.53
2018-08-17T22:39:52.777Z,5.20
2018-08-17T22:42:22.662Z,5.30
2018-08-17T22:44:51.326Z,5.10
2018-08-17T22:47:22.954Z,5.40
2018-08-17T22:49:52.426Z,5.30
2018-08-17T22:52:21.086Z,5.00
2018-08-17T22:54:54.872Z,5.43
2018-08-17T22:57:23.423Z,5.30
2018-08-17T23:00:08.396Z,5.23
2018-08-17T23:02:37.011Z,5.10
2018-08-17T23:05:06.520Z,5.40
2018-08-17T23:07:35.049Z,6.00
2018-08-17T23:10:03.918Z,5.40
2018-08-17T23:12:32.472Z,5.53
2018-08-17T23:15:00.968Z,5.90
2018-08-17T23:17:29.541Z,6.27
2018-08-17T23:19:58.571Z,5.87
2018-08-17T23:22:27.037Z,6.23
2018-08-17T23:24:55.666Z,5.90
2018-08-17T23:27:24.144Z,5.97
2018-08-17T23:29:52.641Z,5.40
2018-08-17T23:32:21.172Z,5.53
2018-08-17T23:34:49.799Z,6.57
2018-08-17T23:37:18.323Z,5.80
2018-08-17T23:39:47.048Z,6.07
2018-08-17T23:42:15.666Z,6.20
2018-08-17T23:44:44.149Z,6.10
2018-08-17T23:47:12.669Z,6.70
2018-08-17T23:49:41.208Z,6.70
2018-08-17T23:52:09.701Z,7.40
2018-08-17T23:54:39.277Z,6.33
2018-08-17T23:57:07.898Z,6.20
2018-08-17T23:59:36.414Z,5.97
